createdAt,value
2018-02-04T00:00:29.297Z,1004.52
2018-02-04T00:01:29.226Z,1004.49
2018-02-04T00:02:29.190Z,1004.55
2018-02-04T00:03:29.136Z,1004.57
2018-02-04T00:04:29.094Z,1004.57
2018-02-04T00:05:29.050Z,1004.62
2018-02-04T00:06:29.032Z,1004.62
2018-02-04T00:07:28.962Z,1004.70
2018-02-04T00:08:28.913Z,1004.67
2018-02-04T00:09:28.869Z,1004.65
2018-02-04T00:10:28.824Z,1004.67
2018-02-04T00:11:28.775Z,1004.72
2018-02-04T00:12:28.764Z,1004.73
2018-02-04T00:13:28.702Z,1004.80
2018-02-04T00:14:28.650Z,1004.78
2018-02-04T00:15:28.611Z,1004.81
2018-02-04T00:16:28.560Z,1004.84
2018-02-04T00:17:28.522Z,1004.84
2018-02-04T00:18:28.498Z,1004.85
2018-02-04T00:19:28.489Z,1004.89
2018-02-04T00:20:28.389Z,1004.87
2018-02-04T00:21:28.344Z,1004.91
2018-02-04T00:22:28.302Z,1004.95
2018-02-04T00:23:28.279Z,1004.94
2018-02-04T00:24:28.213Z,1004.96
2018-02-04T00:25:28.163Z,1004.96
2018-02-04T00:26:28.116Z,1004.95
2018-02-04T00:27:28.074Z,1004.99
2018-02-04T00:28:28.060Z,1005.00
2018-02-04T00:29:28.033Z,1004.95
2018-02-04T00:30:27.947Z,1005.02
2018-02-04T00:31:27.897Z,1005.05
2018-02-04T00:32:27.857Z,1005.04
2018-02-04T00:33:27.816Z,1005.05
2018-02-04T00:34:27.800Z,1005.03
2018-02-04T00:35:27.719Z,1005.11
2018-02-04T00:36:27.681Z,1005.13
2018-02-04T00:37:27.637Z,1005.13
2018-02-04T00:38:27.588Z,1005.14
2018-02-04T00:39:27.542Z,1005.15
2018-02-04T00:40:27.520Z,1005.15
2018-02-04T00:41:27.451Z,1005.19
2018-02-04T00:42:27.416Z,1005.16
2018-02-04T00:43:27.368Z,1005.16
2018-02-04T00:44:27.323Z,1005.18
2018-02-04T00:45:27.305Z,1005.21
2018-02-04T00:46:27.232Z,1005.24
2018-02-04T00:47:27.193Z,1005.23
2018-02-04T00:48:27.146Z,1005.25
2018-02-04T00:49:27.098Z,1005.30
2018-02-04T00:50:27.053Z,1005.34
2018-02-04T00:51:27.043Z,1005.34
2018-02-04T00:52:26.971Z,1005.36
2018-02-04T00:53:26.922Z,1005.33
2018-02-04T00:54:26.882Z,1005.43
2018-02-04T00:55:26.828Z,1005.36
2018-02-04T00:56:26.791Z,1005.44
2018-02-04T00:57:26.765Z,1005.37
2018-02-04T00:58:26.702Z,1005.39
2018-02-04T00:59:26.652Z,1005.40
2018-02-04T01:00:26.612Z,1005.47
2018-02-04T01:01:26.570Z,1005.39
2018-02-04T01:02:26.551Z,1005.40
2018-02-04T01:03:26.475Z,1005.43
2018-02-04T01:04:26.426Z,1005.52
2018-02-04T01:05:26.383Z,1005.48
2018-02-04T01:06:26.338Z,1005.46
2018-02-04T01:07:26.292Z,1005.45
2018-02-04T01:08:26.281Z,1005.46
2018-02-04T01:09:26.205Z,1005.48
2018-02-04T01:10:26.159Z,1005.52
2018-02-04T01:11:26.117Z,1005.51
2018-02-04T01:12:26.068Z,1005.53
2018-02-04T01:13:26.027Z,1005.58
2018-02-04T01:14:26.006Z,1005.56
2018-02-04T01:15:25.937Z,1005.57
2018-02-04T01:16:25.888Z,1005.61
2018-02-04T01:17:25.851Z,1005.65
2018-02-04T01:18:25.800Z,1005.65
2018-02-04T01:19:25.757Z,1005.64
2018-02-04T01:20:25.730Z,1005.64
2018-02-04T01:21:25.670Z,1005.67
2018-02-04T01:22:25.623Z,1005.67
2018-02-04T01:23:25.587Z,1005.70
2018-02-04T01:24:25.525Z,1005.74
2018-02-04T01:25:25.518Z,1005.75
2018-02-04T01:26:25.437Z,1005.72
2018-02-04T01:27:25.399Z,1005.80
2018-02-04T01:28:25.348Z,1005.79
2018-02-04T01:29:25.311Z,1005.82
2018-02-04T01:30:25.260Z,1005.89
2018-02-04T01:31:25.242Z,1005.88
2018-02-04T01:32:25.174Z,1005.90
2018-02-04T01:33:25.130Z,1005.95
2018-02-04T01:34:25.117Z,1005.95
2018-02-04T01:35:25.039Z,1006.00
2018-02-04T01:36:25.020Z,1005.99
2018-02-04T01:37:24.941Z,1006.00
2018-02-04T01:38:24.897Z,1006.02
2018-02-04T01:39:24.852Z,1006.06
2018-02-04T01:40:24.808Z,1006.06
2018-02-04T01:41:24.760Z,1006.09
2018-02-04T01:42:24.740Z,1006.12
2018-02-04T01:43:24.675Z,1006.10
2018-02-04T01:44:24.634Z,1006.14
2018-02-04T01:45:24.588Z,1006.17
2018-02-04T01:46:24.537Z,1006.17
2018-02-04T01:47:24.533Z,1006.15
2018-02-04T01:48:24.451Z,1006.20
2018-02-04T01:49:24.410Z,1006.20
2018-02-04T01:50:24.365Z,1006.24
2018-02-04T01:51:24.319Z,1006.22
2018-02-04T01:52:24.266Z,1006.27
2018-02-04T01:53:24.259Z,1006.26
2018-02-04T01:54:24.181Z,1006.26
2018-02-04T01:55:24.133Z,1006.16
2018-02-04T01:56:24.093Z,1006.30
2018-02-04T01:57:24.042Z,1006.27
2018-02-04T01:58:24.005Z,1006.30
2018-02-04T01:59:23.975Z,1006.37
2018-02-04T02:00:23.914Z,1006.35
2018-02-04T02:01:23.863Z,1006.33
2018-02-04T02:02:23.823Z,1006.37
2018-02-04T02:03:23.772Z,1006.33
2018-02-04T02:04:23.763Z,1006.33
2018-02-04T02:05:23.689Z,1006.32
2018-02-04T02:06:23.646Z,1006.32
2018-02-04T02:07:23.600Z,1006.28
2018-02-04T02:08:23.549Z,1006.32
2018-02-04T02:09:23.501Z,1006.36
2018-02-04T02:10:23.488Z,1006.35
2018-02-04T02:11:23.414Z,1006.33
2018-02-04T02:12:23.375Z,1006.36
2018-02-04T02:13:23.331Z,1006.35
2018-02-04T02:14:23.279Z,1006.38
2018-02-04T02:15:23.233Z,1006.36
2018-02-04T02:16:23.212Z,1006.42
2018-02-04T02:17:23.143Z,1006.45
2018-02-04T02:18:23.104Z,1006.44
2018-02-04T02:19:23.061Z,1006.45
2018-02-04T02:20:23.008Z,1006.52
2018-02-04T02:21:23.001Z,1006.49
2018-02-04T02:22:22.925Z,1006.50
2018-02-04T02:23:22.875Z,1006.53
2018-02-04T02:24:22.831Z,1006.54
2018-02-04T02:25:22.790Z,1006.56
2018-02-04T02:26:22.750Z,1006.59
2018-02-04T02:27:22.726Z,1006.55
2018-02-04T02:28:22.652Z,1006.57
2018-02-04T02:29:22.613Z,1006.66
2018-02-04T02:30:22.560Z,1006.64
2018-02-04T02:31:22.521Z,1006.67
2018-02-04T02:32:22.471Z,1006.68
2018-02-04T02:33:22.459Z,1006.68
2018-02-04T02:34:22.384Z,1006.70
2018-02-04T02:35:22.341Z,1006.71
2018-02-04T02:36:22.305Z,1006.74
2018-02-04T02:37:22.251Z,1006.75
2018-02-04T02:38:22.207Z,1006.75
2018-02-04T02:39:22.192Z,1006.72
2018-02-04T02:40:22.112Z,1006.71
2018-02-04T02:41:22.068Z,1006.73
2018-02-04T02:42:22.021Z,1006.80
2018-02-04T02:43:21.975Z,1006.76
2018-02-04T02:44:21.936Z,1006.79
2018-02-04T02:45:21.915Z,1006.80
2018-02-04T02:46:21.851Z,1006.81
2018-02-04T02:47:21.804Z,1006.81
2018-02-04T02:48:21.755Z,1006.86
2018-02-04T02:49:21.714Z,1006.83
2018-02-04T02:50:21.662Z,1006.86
2018-02-04T02:51:21.639Z,1006.86
2018-02-04T02:52:21.580Z,1006.90
2018-02-04T02:53:21.536Z,1006.87
2018-02-04T02:54:21.489Z,1006.88
2018-02-04T02:55:21.440Z,1006.94
2018-02-04T02:56:21.418Z,1006.94
2018-02-04T02:57:21.356Z,1006.98
2018-02-04T02:58:21.307Z,1006.99
2018-02-04T02:59:21.258Z,1007.03
2018-02-04T03:00:21.218Z,1007.06
2018-02-04T03:01:21.203Z,1007.08
2018-02-04T03:02:21.127Z,1007.09
2018-02-04T03:03:21.076Z,1007.10
2018-02-04T03:04:21.039Z,1007.08
2018-02-04T03:05:20.990Z,1007.14
2018-02-04T03:06:20.949Z,1007.15
2018-02-04T03:07:20.930Z,1007.19
2018-02-04T03:08:20.859Z,1007.22
2018-02-04T03:09:20.814Z,1007.21
2018-02-04T03:10:20.772Z,1007.23
2018-02-04T03:11:20.720Z,1007.26
2018-02-04T03:12:20.678Z,1007.24
2018-02-04T03:13:20.652Z,1007.25
2018-02-04T03:14:20.592Z,1007.29
2018-02-04T03:15:20.538Z,1007.32
2018-02-04T03:16:20.493Z,1007.35
2018-02-04T03:17:20.448Z,1007.38
2018-02-04T03:18:20.438Z,1007.38
2018-02-04T03:19:20.364Z,1007.36
2018-02-04T03:20:20.320Z,1007.43
2018-02-04T03:21:20.272Z,1007.44
2018-02-04T03:22:20.222Z,1007.46
2018-02-04T03:23:20.177Z,1007.41
2018-02-04T03:24:20.163Z,1007.47
2018-02-04T03:25:20.086Z,1007.45
2018-02-04T03:26:20.042Z,1007.48
2018-02-04T03:27:20.003Z,1007.50
2018-02-04T03:28:19.956Z,1007.46
2018-02-04T03:29:19.935Z,1007.48
2018-02-04T03:30:19.864Z,1007.48
2018-02-04T03:31:19.824Z,1007.48
2018-02-04T03:32:19.770Z,1007.50
2018-02-04T03:33:19.729Z,1007.52
2018-02-04T03:34:19.681Z,1007.47
2018-02-04T03:35:19.666Z,1007.54
2018-02-04T03:36:19.595Z,1007.54
2018-02-04T03:37:19.551Z,1007.55
2018-02-04T03:38:19.510Z,1007.58
2018-02-04T03:39:19.461Z,1007.58
2018-02-04T03:40:19.443Z,1007.63
2018-02-04T03:41:19.372Z,1007.63
2018-02-04T03:42:19.319Z,1007.68
2018-02-04T03:43:19.280Z,1007.72
2018-02-04T03:44:19.225Z,1007.80
2018-02-04T03:45:19.184Z,1007.77
2018-02-04T03:46:19.167Z,1007.81
2018-02-04T03:47:19.098Z,1007.84
2018-02-04T03:48:19.048Z,1007.89
2018-02-04T03:49:19.004Z,1007.88
2018-02-04T03:50:18.959Z,1007.95
2018-02-04T03:51:18.913Z,1007.98
2018-02-04T03:52:18.895Z,1007.90
2018-02-04T03:53:18.827Z,1007.93
2018-02-04T03:54:18.786Z,1007.98
2018-02-04T03:55:18.738Z,1007.96
2018-02-04T03:56:18.686Z,1007.96
2018-02-04T03:57:18.680Z,1008.00
2018-02-04T03:58:18.596Z,1008.04
2018-02-04T03:59:18.556Z,1008.06
2018-02-04T04:00:18.504Z,1008.06
2018-02-04T04:01:18.466Z,1008.05
2018-02-04T04:02:18.415Z,1008.10
2018-02-04T04:03:18.403Z,1008.14
2018-02-04T04:04:18.329Z,1008.15
2018-02-04T04:05:18.280Z,1008.19
2018-02-04T04:06:18.238Z,1008.22
2018-02-04T04:07:18.208Z,1008.21
2018-02-04T04:08:18.153Z,1008.32
2018-02-04T04:09:18.127Z,1008.31
2018-02-04T04:10:18.052Z,1008.28
2018-02-04T04:11:18.010Z,1008.29
2018-02-04T04:12:17.975Z,1008.34
2018-02-04T04:13:17.926Z,1008.32
2018-02-04T04:14:17.906Z,1008.36
2018-02-04T04:15:17.832Z,1008.34
2018-02-04T04:16:17.795Z,1008.34
2018-02-04T04:17:17.771Z,1008.38
2018-02-04T04:18:17.697Z,1008.39
2018-02-04T04:19:17.650Z,1008.38
2018-02-04T04:20:17.628Z,1008.42
2018-02-04T04:21:17.562Z,1008.44
2018-02-04T04:22:17.516Z,1008.44
2018-02-04T04:23:17.465Z,1008.43
2018-02-04T04:24:17.424Z,1008.47
2018-02-04T04:25:17.381Z,1008.47
2018-02-04T04:26:17.359Z,1008.45
2018-02-04T04:27:17.285Z,1008.49
2018-02-04T04:28:17.248Z,1008.54
2018-02-04T04:29:17.192Z,1008.54
2018-02-04T04:30:17.153Z,1008.56
2018-02-04T04:31:17.108Z,1008.54
2018-02-04T04:32:17.082Z,1008.57
2018-02-04T04:33:17.011Z,1008.56
2018-02-04T04:34:16.968Z,1008.61
2018-02-04T04:35:16.924Z,1008.62
2018-02-04T04:36:16.874Z,1008.64
2018-02-04T04:37:16.859Z,1008.63
2018-02-04T04:38:16.794Z,1008.66
2018-02-04T04:39:16.741Z,1008.66
2018-02-04T04:40:16.696Z,1008.67
2018-02-04T04:41:16.657Z,1008.74
2018-02-04T04:42:16.631Z,1008.71
2018-02-04T04:43:16.558Z,1008.74
2018-02-04T04:44:16.516Z,1008.73
2018-02-04T04:45:16.472Z,1008.76
2018-02-04T04:46:16.418Z,1008.76
2018-02-04T04:47:16.413Z,1008.78
2018-02-04T04:48:16.334Z,1008.76
2018-02-04T04:49:16.291Z,1008.83
2018-02-04T04:50:16.247Z,1008.80
2018-02-04T04:51:16.203Z,1008.85
2018-02-04T04:52:16.157Z,1008.84
2018-02-04T04:53:16.136Z,1008.83
2018-02-04T04:54:16.067Z,1008.87
2018-02-04T04:55:16.011Z,1008.89
2018-02-04T04:56:15.974Z,1008.98
2018-02-04T04:57:15.923Z,1008.93
2018-02-04T04:58:15.884Z,1008.90
2018-02-04T04:59:15.856Z,1008.99
2018-02-04T05:00:15.791Z,1008.99
2018-02-04T05:01:15.742Z,1008.96
2018-02-04T05:02:15.694Z,1008.99
2018-02-04T05:03:15.648Z,1009.00
2018-02-04T05:04:15.641Z,1009.01
2018-02-04T05:05:15.565Z,1009.02
2018-02-04T05:06:15.534Z,1009.04
2018-02-04T05:07:15.474Z,1009.09
2018-02-04T05:08:15.428Z,1009.10
2018-02-04T05:09:15.385Z,1009.16
2018-02-04T05:10:15.366Z,1009.10
2018-02-04T05:11:15.294Z,1009.13
2018-02-04T05:12:15.255Z,1009.14
2018-02-04T05:13:15.206Z,1009.13
2018-02-04T05:14:15.152Z,1009.24
2018-02-04T05:15:15.114Z,1009.16
2018-02-04T05:16:15.090Z,1009.17
2018-02-04T05:17:15.077Z,1009.31
2018-02-04T05:18:14.970Z,1009.24
2018-02-04T05:19:14.921Z,1009.31
2018-02-04T05:20:14.882Z,1009.34
2018-02-04T05:21:14.868Z,1009.31
2018-02-04T05:22:14.794Z,1009.36
2018-02-04T05:23:14.748Z,1009.36
2018-02-04T05:24:14.698Z,1009.32
2018-02-04T05:25:14.651Z,1009.37
2018-02-04T05:26:14.604Z,1009.41
2018-02-04T05:27:14.590Z,1009.42
2018-02-04T05:28:14.510Z,1009.41
2018-02-04T05:29:14.466Z,1009.44
2018-02-04T05:30:14.433Z,1009.44
2018-02-04T05:31:14.380Z,1009.51
2018-02-04T05:32:14.329Z,1009.52
2018-02-04T05:33:14.319Z,1009.53
2018-02-04T05:34:14.246Z,1009.52
2018-02-04T05:35:14.194Z,1009.55
2018-02-04T05:36:14.147Z,1009.53
2018-02-04T05:37:14.109Z,1009.57
2018-02-04T05:38:14.065Z,1009.57
2018-02-04T05:39:14.036Z,1009.57
2018-02-04T05:40:13.970Z,1009.59
2018-02-04T05:41:13.920Z,1009.62
2018-02-04T05:42:13.881Z,1009.68
2018-02-04T05:43:13.827Z,1009.70
2018-02-04T05:44:13.793Z,1009.69
2018-02-04T05:45:13.765Z,1009.70
2018-02-04T05:46:13.696Z,1009.75
2018-02-04T05:47:13.646Z,1009.69
2018-02-04T05:48:13.607Z,1009.71
2018-02-04T05:49:13.555Z,1009.72
2018-02-04T05:50:13.510Z,1009.73
2018-02-04T05:51:13.495Z,1009.75
2018-02-04T05:52:13.424Z,1009.76
2018-02-04T05:53:13.379Z,1009.79
2018-02-04T05:54:13.332Z,1009.79
2018-02-04T05:55:13.291Z,1009.81
2018-02-04T05:56:13.234Z,1009.80
2018-02-04T05:57:13.218Z,1009.81
2018-02-04T05:58:13.151Z,1009.86
2018-02-04T05:59:13.105Z,1009.84
2018-02-04T06:00:13.062Z,1009.85
2018-02-04T06:01:13.017Z,1009.91
2018-02-04T06:02:12.965Z,1009.87
2018-02-04T06:03:12.943Z,1009.90
2018-02-04T06:04:12.872Z,1009.94
2018-02-04T06:05:12.832Z,1009.99
2018-02-04T06:06:12.795Z,1009.98
2018-02-04T06:07:12.734Z,1009.97
2018-02-04T06:08:12.690Z,1010.01
2018-02-04T06:09:12.675Z,1010.01
2018-02-04T06:10:12.606Z,1010.08
2018-02-04T06:11:12.556Z,1010.16
2018-02-04T06:12:12.507Z,1010.13
2018-02-04T06:13:12.468Z,1010.16
2018-02-04T06:14:12.440Z,1010.21
2018-02-04T06:15:12.377Z,1010.21
2018-02-04T06:16:12.327Z,1010.20
2018-02-04T06:17:12.287Z,1010.25
2018-02-04T06:18:12.236Z,1010.27
2018-02-04T06:19:12.220Z,1010.27
2018-02-04T06:20:12.143Z,1010.27
2018-02-04T06:21:12.102Z,1010.28
2018-02-04T06:22:12.060Z,1010.29
2018-02-04T06:23:12.013Z,1010.34
2018-02-04T06:24:11.966Z,1010.33
2018-02-04T06:25:11.952Z,1010.33
2018-02-04T06:26:11.880Z,1010.42
2018-02-04T06:27:11.831Z,1010.41
2018-02-04T06:28:11.788Z,1010.40
2018-02-04T06:29:11.742Z,1010.40
2018-02-04T06:30:11.691Z,1010.49
2018-02-04T06:31:11.676Z,1010.44
2018-02-04T06:32:11.600Z,1010.55
2018-02-04T06:33:11.553Z,1010.52
2018-02-04T06:34:11.507Z,1010.56
2018-02-04T06:35:11.469Z,1010.52
2018-02-04T06:36:11.417Z,1010.58
2018-02-04T06:37:11.404Z,1010.55
2018-02-04T06:38:11.329Z,1010.62
2018-02-04T06:39:11.281Z,1010.60
2018-02-04T06:40:11.238Z,1010.66
2018-02-04T06:41:11.197Z,1010.69
2018-02-04T06:42:11.179Z,1010.66
2018-02-04T06:43:11.105Z,1010.66
2018-02-04T06:44:11.059Z,1010.72
2018-02-04T06:45:11.009Z,1010.68
2018-02-04T06:46:10.971Z,1010.74
2018-02-04T06:47:10.920Z,1010.72
2018-02-04T06:48:10.912Z,1010.71
2018-02-04T06:49:10.831Z,1010.71
2018-02-04T06:50:10.787Z,1010.73
2018-02-04T06:51:10.736Z,1010.76
2018-02-04T06:52:10.691Z,1010.73
2018-02-04T06:53:10.646Z,1010.79
2018-02-04T06:54:10.629Z,1010.80
2018-02-04T06:55:10.554Z,1010.80
2018-02-04T06:56:10.516Z,1010.81
2018-02-04T06:57:10.471Z,1010.88
2018-02-04T06:58:10.426Z,1010.90
2018-02-04T06:59:10.380Z,1010.93
2018-02-04T07:00:10.360Z,1010.88
2018-02-04T07:01:10.282Z,1010.91
2018-02-04T07:02:10.242Z,1010.90
2018-02-04T07:03:10.200Z,1010.90
2018-02-04T07:04:10.155Z,1010.92
2018-02-04T07:05:10.111Z,1010.91
2018-02-04T07:06:10.088Z,1010.92
2018-02-04T07:07:10.020Z,1010.95
2018-02-04T07:08:09.970Z,1010.97
2018-02-04T07:09:09.931Z,1010.96
2018-02-04T07:10:09.888Z,1011.00
2018-02-04T07:11:09.843Z,1011.08
2018-02-04T07:12:09.818Z,1011.06
2018-02-04T07:13:09.754Z,1011.06
2018-02-04T07:14:09.700Z,1011.11
2018-02-04T07:15:09.656Z,1011.12
2018-02-04T07:16:09.620Z,1011.12
2018-02-04T07:17:09.569Z,1011.18
2018-02-04T07:18:09.548Z,1011.19
2018-02-04T07:19:09.485Z,1011.20
2018-02-04T07:20:09.439Z,1011.20
2018-02-04T07:21:09.388Z,1011.25
2018-02-04T07:22:09.346Z,1011.24
2018-02-04T07:23:09.304Z,1011.26
2018-02-04T07:24:09.291Z,1011.31
2018-02-04T07:25:09.219Z,1011.33
2018-02-04T07:26:09.165Z,1011.31
2018-02-04T07:27:09.122Z,1011.35
2018-02-04T07:28:09.077Z,1011.36
2018-02-04T07:29:09.085Z,1011.39
2018-02-04T07:30:09.024Z,1011.35
2018-02-04T07:31:08.949Z,1011.37
2018-02-04T07:32:08.900Z,1011.38
2018-02-04T07:33:08.870Z,1011.39
2018-02-04T07:34:08.808Z,1011.42
2018-02-04T07:35:08.768Z,1011.43
2018-02-04T07:36:08.747Z,1011.46
2018-02-04T07:37:08.689Z,1011.46
2018-02-04T07:38:08.633Z,1011.47
2018-02-04T07:39:08.592Z,1011.48
2018-02-04T07:40:08.541Z,1011.51
2018-02-04T07:41:08.499Z,1011.53
2018-02-04T07:42:08.479Z,1011.50
2018-02-04T07:43:08.407Z,1011.53
2018-02-04T07:44:08.370Z,1011.50
2018-02-04T07:45:08.326Z,1011.53
2018-02-04T07:46:08.280Z,1011.57
2018-02-04T07:47:08.260Z,1011.63
2018-02-04T07:48:08.184Z,1011.60
2018-02-04T07:49:08.151Z,1011.62
2018-02-04T07:50:08.101Z,1011.63
2018-02-04T07:51:08.048Z,1011.65
2018-02-04T07:52:08.032Z,1011.63
2018-02-04T07:53:07.968Z,1011.64
2018-02-04T07:54:07.925Z,1011.63
2018-02-04T07:55:07.876Z,1011.63
2018-02-04T07:56:07.833Z,1011.65
2018-02-04T07:57:07.795Z,1011.66
2018-02-04T07:58:07.764Z,1011.68
2018-02-04T07:59:07.696Z,1011.72
2018-02-04T08:00:07.648Z,1011.76
2018-02-04T08:01:07.603Z,1011.78
2018-02-04T08:02:07.566Z,1011.81
2018-02-04T08:03:07.520Z,1011.78
2018-02-04T08:04:07.493Z,1011.80
2018-02-04T08:05:07.428Z,1011.82
2018-02-04T08:06:07.381Z,1011.85
2018-02-04T08:07:07.342Z,1011.84
2018-02-04T08:08:07.300Z,1011.86
2018-02-04T08:09:07.282Z,1011.88
2018-02-04T08:10:07.207Z,1011.92
2018-02-04T08:11:07.165Z,1011.89
2018-02-04T08:12:07.114Z,1011.88
2018-02-04T08:13:07.076Z,1011.88
2018-02-04T08:14:07.033Z,1011.96
2018-02-04T08:15:07.016Z,1011.98
2018-02-04T08:16:06.938Z,1011.99
2018-02-04T08:17:06.901Z,1011.96
2018-02-04T08:18:06.852Z,1011.99
2018-02-04T08:19:06.805Z,1012.03
2018-02-04T08:20:06.769Z,1012.01
2018-02-04T08:21:06.747Z,1011.96
2018-02-04T08:22:06.675Z,1011.96
2018-02-04T08:23:06.631Z,1011.99
2018-02-04T08:24:06.591Z,1011.99
2018-02-04T08:25:06.544Z,1012.00
2018-02-04T08:26:06.506Z,1012.00
2018-02-04T08:27:06.484Z,1012.03
2018-02-04T08:28:06.416Z,1012.07
2018-02-04T08:29:06.376Z,1012.05
2018-02-04T08:30:06.331Z,1012.07
2018-02-04T08:31:06.280Z,1012.05
2018-02-04T08:32:06.277Z,1012.22
2018-02-04T08:33:06.193Z,1012.12
2018-02-04T08:34:06.157Z,1012.26
2018-02-04T08:35:06.105Z,1012.40
2018-02-04T08:36:06.065Z,1012.39
2018-02-04T08:37:06.019Z,1012.38
2018-02-04T08:38:06.013Z,1012.38
2018-02-04T08:39:06.069Z,1012.38
2018-02-04T08:40:05.954Z,1012.44
2018-02-04T08:41:05.981Z,1012.52
2018-02-04T08:42:05.849Z,1012.62
2018-02-04T08:43:06.808Z,1012.70
2018-02-04T08:44:05.791Z,1012.68
2018-02-04T08:45:05.691Z,1012.75
2018-02-04T08:46:05.652Z,1012.79
2018-02-04T08:47:05.600Z,1012.84
2018-02-04T08:48:05.720Z,1012.83
2018-02-04T08:49:05.563Z,1012.90
2018-02-04T08:50:05.489Z,1012.89
2018-02-04T08:51:05.448Z,1012.86
2018-02-04T08:52:05.406Z,1012.81
2018-02-04T08:53:05.377Z,1012.67
2018-02-04T08:54:05.328Z,1012.70
2018-02-04T08:55:05.320Z,1012.63
2018-02-04T08:56:05.254Z,1012.64
2018-02-04T08:57:05.222Z,1012.64
2018-02-04T08:58:05.186Z,1012.61
2018-02-04T08:59:05.141Z,1012.62
2018-02-04T09:00:05.104Z,1012.63
2018-02-04T09:01:05.090Z,1012.68
2018-02-04T09:02:05.025Z,1012.72
2018-02-04T09:03:04.998Z,1012.70
2018-02-04T09:04:04.992Z,1012.69
2018-02-04T09:05:04.907Z,1012.70
2018-02-04T09:06:04.892Z,1012.69
2018-02-04T09:07:04.843Z,1012.70
2018-02-04T09:08:04.788Z,1012.72
2018-02-04T09:09:04.756Z,1012.70
2018-02-04T09:10:04.716Z,1012.73
2018-02-04T09:11:04.680Z,1012.75
2018-02-04T09:12:04.664Z,1012.75
2018-02-04T09:13:04.597Z,1012.73
2018-02-04T09:14:04.577Z,1012.72
2018-02-04T09:15:04.513Z,1012.76
2018-02-04T09:16:04.475Z,1012.74
2018-02-04T09:17:04.438Z,1012.75
2018-02-04T09:18:04.421Z,1012.76
2018-02-04T09:19:04.349Z,1012.79
2018-02-04T09:20:04.303Z,1012.81
2018-02-04T09:21:04.272Z,1012.78
2018-02-04T09:22:04.233Z,1012.78
2018-02-04T09:23:04.190Z,1012.80
2018-02-04T09:24:04.172Z,1012.81
2018-02-04T09:25:04.104Z,1012.84
2018-02-04T09:26:04.066Z,1012.83
2018-02-04T09:27:04.021Z,1012.88
2018-02-04T09:28:04.029Z,1012.88
2018-02-04T09:29:03.964Z,1012.81
2018-02-04T09:30:03.994Z,1012.83
2018-02-04T09:31:03.853Z,1012.91
2018-02-04T09:32:03.825Z,1012.91
2018-02-04T09:33:03.772Z,1012.93
2018-02-04T09:34:03.847Z,1012.93
2018-02-04T09:35:03.714Z,1012.93
2018-02-04T09:36:03.642Z,1012.94
2018-02-04T09:37:03.605Z,1012.93
2018-02-04T09:38:03.560Z,1012.96
2018-02-04T09:39:03.517Z,1012.98
2018-02-04T09:40:03.467Z,1013.03
2018-02-04T09:41:03.455Z,1013.02
2018-02-04T09:42:03.389Z,1013.04
2018-02-04T09:43:03.339Z,1013.07
2018-02-04T09:44:03.310Z,1013.08
2018-02-04T09:45:03.264Z,1013.10
2018-02-04T09:46:03.245Z,1013.08
2018-02-04T09:47:03.172Z,1013.09
2018-02-04T09:48:03.135Z,1013.10
2018-02-04T09:49:03.088Z,1013.15
2018-02-04T09:50:03.049Z,1013.15
2018-02-04T09:51:03.036Z,1013.12
2018-02-04T09:52:02.966Z,1013.13
2018-02-04T09:53:02.920Z,1013.15
2018-02-04T09:54:02.871Z,1013.17
2018-02-04T09:55:02.831Z,1013.18
2018-02-04T09:56:02.790Z,1013.18
2018-02-04T09:57:02.767Z,1013.19
2018-02-04T09:58:02.710Z,1013.18
2018-02-04T09:59:02.659Z,1013.17
2018-02-04T10:00:02.622Z,1013.16
2018-02-04T10:01:02.572Z,1013.17
2018-02-04T10:02:02.567Z,1013.14
2018-02-04T10:03:02.489Z,1013.16
2018-02-04T10:04:02.446Z,1013.18
2018-02-04T10:05:02.403Z,1013.18
2018-02-04T10:06:02.360Z,1013.20
2018-02-04T10:07:02.317Z,1013.29
2018-02-04T10:08:02.308Z,1013.31
2018-02-04T10:09:02.253Z,1013.38
2018-02-04T10:10:02.195Z,1013.37
2018-02-04T10:11:02.156Z,1013.43
2018-02-04T10:12:02.113Z,1013.47
2018-02-04T10:13:02.098Z,1013.49
2018-02-04T10:14:02.025Z,1013.46
2018-02-04T10:15:01.977Z,1013.45
2018-02-04T10:16:01.939Z,1013.44
2018-02-04T10:17:01.897Z,1013.44
2018-02-04T10:18:01.858Z,1013.41
2018-02-04T10:19:01.844Z,1013.39
2018-02-04T10:20:01.772Z,1013.45
2018-02-04T10:21:01.724Z,1013.45
2018-02-04T10:22:01.685Z,1013.48
2018-02-04T10:23:01.641Z,1013.51
2018-02-04T10:24:01.603Z,1013.61
2018-02-04T10:25:01.585Z,1013.69
2018-02-04T10:26:01.542Z,1013.83
2018-02-04T10:27:01.479Z,1013.96
2018-02-04T10:28:01.430Z,1013.66
2018-02-04T10:29:01.396Z,1013.63
2018-02-04T10:30:01.347Z,1013.64
2018-02-04T10:31:01.370Z,1013.61
2018-02-04T10:32:01.273Z,1013.62
2018-02-04T10:33:01.234Z,1013.64
2018-02-04T10:34:01.205Z,1013.63
2018-02-04T10:35:01.236Z,1013.62
2018-02-04T10:36:01.192Z,1013.60
2018-02-04T10:37:01.395Z,1013.64
2018-02-04T10:38:01.017Z,1013.64
2018-02-04T10:39:01.173Z,1013.64
2018-02-04T10:40:00.943Z,1013.64
2018-02-04T10:41:00.912Z,1013.63
2018-02-04T10:42:00.877Z,1013.63
2018-02-04T10:43:00.809Z,1013.64
2018-02-04T10:44:00.903Z,1013.66
2018-02-04T10:45:00.734Z,1013.64
2018-02-04T10:46:00.692Z,1013.66
2018-02-04T10:47:00.683Z,1013.65
2018-02-04T10:48:00.616Z,1013.63
2018-02-04T10:49:00.571Z,1013.63
2018-02-04T10:50:00.551Z,1013.67
2018-02-04T10:51:00.477Z,1013.64
2018-02-04T10:52:00.482Z,1013.65
2018-02-04T10:53:00.391Z,1013.68
2018-02-04T10:54:00.357Z,1013.70
2018-02-04T10:55:00.313Z,1013.72
2018-02-04T10:56:00.274Z,1013.82
2018-02-04T10:57:00.340Z,1013.85
2018-02-04T10:58:00.229Z,1013.79
2018-02-04T10:59:00.153Z,1013.75
2018-02-04T11:00:00.176Z,1013.71
2018-02-04T11:01:00.152Z,1013.70
2018-02-04T11:02:00.038Z,1013.73
2018-02-04T11:03:00.024Z,1013.73
2018-02-04T11:03:59.945Z,1013.70
2018-02-04T11:04:59.906Z,1013.74
2018-02-04T11:05:59.855Z,1013.73
2018-02-04T11:06:59.966Z,1013.71
2018-02-04T11:07:59.790Z,1013.70
2018-02-04T11:08:59.768Z,1013.74
2018-02-04T11:09:59.722Z,1013.71
2018-02-04T11:10:59.645Z,1013.75
2018-02-04T11:11:59.610Z,1013.75
2018-02-04T11:12:59.554Z,1013.77
2018-02-04T11:13:59.517Z,1013.77
2018-02-04T11:14:59.490Z,1013.83
2018-02-04T11:15:59.427Z,1013.83
2018-02-04T11:16:59.413Z,1013.86
2018-02-04T11:17:59.338Z,1013.89
2018-02-04T11:18:59.291Z,1013.91
2018-02-04T11:19:59.293Z,1013.96
2018-02-04T11:20:59.204Z,1013.94
2018-02-04T11:21:59.168Z,1013.98
2018-02-04T11:22:59.127Z,1013.98
2018-02-04T11:23:59.079Z,1013.97
2018-02-04T11:24:59.041Z,1013.99
2018-02-04T11:25:59.765Z,1014.05
2018-02-04T11:26:59.012Z,1014.05
2018-02-04T11:27:59.023Z,1014.04
2018-02-04T11:28:59.215Z,1014.08
2018-02-04T11:29:58.857Z,1014.08
2018-02-04T11:30:58.819Z,1014.04
2018-02-04T11:31:58.777Z,1014.07
2018-02-04T11:32:58.744Z,1014.09
2018-02-04T11:33:58.663Z,1014.07
2018-02-04T11:34:58.610Z,1014.08
2018-02-04T11:35:58.573Z,1014.08
2018-02-04T11:36:58.587Z,1014.12
2018-02-04T11:37:58.635Z,1014.18
2018-02-04T11:38:58.449Z,1014.14
2018-02-04T11:39:58.437Z,1014.18
2018-02-04T11:40:58.352Z,1014.16
2018-02-04T11:41:58.316Z,1014.17
2018-02-04T11:42:58.380Z,1014.22
2018-02-04T11:43:58.229Z,1014.18
2018-02-04T11:44:58.175Z,1014.19
2018-02-04T11:45:58.185Z,1014.20
2018-02-04T11:46:58.114Z,1014.18
2018-02-04T11:47:58.033Z,1014.21
2018-02-04T11:48:58.042Z,1014.19
2018-02-04T11:49:57.963Z,1014.24
2018-02-04T11:50:57.926Z,1014.26
2018-02-04T11:51:57.908Z,1014.24
2018-02-04T11:52:57.832Z,1014.27
2018-02-04T11:53:57.826Z,1014.21
2018-02-04T11:54:57.726Z,1014.22
2018-02-04T11:55:57.689Z,1014.23
2018-02-04T11:56:57.647Z,1014.27
2018-02-04T11:57:57.613Z,1014.26
2018-02-04T12:00:14.456Z,1014.31
2018-02-04T12:02:06.806Z,1014.30
2018-02-04T12:02:59.820Z,1014.34
2018-02-04T12:03:59.807Z,1014.28
2018-02-04T12:04:57.331Z,1014.33
2018-02-04T12:05:57.278Z,1014.35
2018-02-04T12:06:57.303Z,1014.33